Time;durP1;ratioP1;P1;durP2;ratioP2;P2;SDS_P1;SDS_P2;PMS_P1;PMS_P2;Temp;Humidity;BMP_temperature;BMP_pressure;BME280_temperature;BME280_humidity;BME280_pressure;Samples;Min_cycle;Max_cycle;Signal;HPM_P1;HPM_P2
2022/09/03 00:02:32;;;;;;;1.50;1.20;;;23.60;42.00;;;;;;5029603;28;20461;-82
2022/09/03 00:05:24;;;;;;;1.50;1.00;;;23.60;42.10;;;;;;5011875;28;20419;-83
2022/09/03 00:08:30;;;;;;;1.50;1.17;;;23.60;42.10;;;;;;5028859;28;20415;-82
2022/09/03 00:11:33;;;;;;;1.10;1.00;;;23.60;42.00;;;;;;5032287;28;20558;-82
2022/09/03 00:14:02;;;;;;;2.07;1.53;;;23.60;42.10;;;;;;5051130;28;20407;-83
2022/09/03 00:16:32;;;;;;;1.40;1.20;;;23.60;42.10;;;;;;5036918;28;20399;-83
2022/09/03 00:19:02;;;;;;;2.23;1.10;;;23.60;42.20;;;;;;5038215;28;20444;-83
2022/09/03 00:21:42;;;;;;;1.70;1.10;;;23.60;42.20;;;;;;5038187;28;20457;-83
2022/09/03 00:24:12;;;;;;;1.50;1.00;;;23.60;42.20;;;;;;5039529;28;20470;-83
2022/09/03 00:26:41;;;;;;;1.30;1.07;;;23.60;42.20;;;;;;5057326;28;20417;-82
2022/09/03 00:29:19;;;;;;;1.73;1.10;;;23.60;42.20;;;;;;5055669;28;20414;-82
2022/09/03 00:31:51;;;;;;;1.10;1.00;;;23.60;42.20;;;;;;5055579;28;20417;-82
2022/09/03 00:34:30;;;;;;;2.03;1.20;;;23.60;42.20;;;;;;5053962;28;20899;-82
2022/09/03 00:37:06;;;;;;;1.30;1.20;;;23.60;42.20;;;;;;5052738;28;20414;-82
2022/09/03 00:39:32;;;;;;;1.30;1.10;;;23.60;42.20;;;;;;5052279;28;20468;-82
2022/09/03 00:42:17;;;;;;;1.70;1.20;;;23.60;42.80;;;;;;5036679;28;20500;-82
2022/09/03 00:44:55;;;;;;;1.40;1.20;;;23.70;42.30;;;;;;5031651;28;20841;-82
2022/09/03 00:48:03;;;;;;;1.40;1.20;;;23.70;42.30;;;;;;5030978;28;20867;-82
2022/09/03 00:50:59;;;;;;;1.97;1.13;;;23.70;42.20;;;;;;5029754;28;20418;-82
2022/09/03 00:53:50;;;;;;;1.20;1.00;;;23.60;42.10;;;;;;5031879;28;20413;-82
2022/09/03 00:56:48;;;;;;;1.30;1.20;;;23.60;42.20;;;;;;5048007;28;20414;-82
2022/09/03 00:59:25;;;;;;;1.10;0.90;;;23.60;42.20;;;;;;5031866;28;20562;-82
2022/09/03 01:02:22;;;;;;;1.57;1.20;;;23.60;42.30;;;;;;5032925;28;20536;-80
2022/09/03 01:05:12;;;;;;;1.40;1.07;;;23.60;42.30;;;;;;5034848;28;20425;-81
2022/09/03 01:07:50;;;;;;;1.40;1.10;;;23.70;42.40;;;;;;5052438;28;20762;-80
2022/09/03 01:10:35;;;;;;;1.30;1.20;;;23.60;42.40;;;;;;5034849;28;20922;-80
2022/09/03 01:13:23;;;;;;;1.37;1.27;;;23.60;42.40;;;;;;5034826;28;20474;-80
2022/09/03 01:16:00;;;;;;;1.50;1.30;;;23.60;42.40;;;;;;5034737;28;20437;-81
2022/09/03 01:19:05;;;;;;;1.40;1.30;;;23.60;42.50;;;;;;5034763;28;20416;-80
2022/09/03 01:22:02;;;;;;;2.73;1.20;;;23.70;42.50;;;;;;5051559;28;20481;-81
2022/09/03 01:24:45;;;;;;;1.93;1.50;;;23.70;42.50;;;;;;5051992;28;20395;-81
2022/09/03 01:27:42;;;;;;;1.13;0.97;;;23.70;42.50;;;;;;5034343;28;20918;-81
2022/09/03 01:30:19;;;;;;;1.40;1.10;;;23.70;42.50;;;;;;5034253;28;20414;-81
2022/09/03 01:32:58;;;;;;;1.70;1.30;;;23.70;42.50;;;;;;5051924;28;20398;-81
2022/09/03 01:35:33;;;;;;;1.67;1.57;;;23.70;42.50;;;;;;5052057;28;20590;-81
2022/09/03 01:38:21;;;;;;;2.07;1.00;;;23.70;42.50;;;;;;5051184;28;20524;-81
2022/09/03 01:44:20;;;;;;;1.70;1.30;;;23.70;42.50;;;;;;5051736;28;20409;-81
2022/09/03 01:46:55;;;;;;;1.40;1.30;;;23.70;42.50;;;;;;5035095;28;20751;-81
2022/09/03 01:49:46;;;;;;;2.23;1.20;;;23.70;42.50;;;;;;5034636;28;20426;-81
2022/09/03 01:52:25;;;;;;;1.40;1.30;;;23.70;42.50;;;;;;5018236;28;20403;-81
2022/09/03 01:55:06;;;;;;;1.30;1.17;;;23.70;42.50;;;;;;5033530;28;20402;-81
2022/09/03 01:58:04;;;;;;;1.53;1.10;;;23.70;42.50;;;;;;5033122;28;20406;-82
2022/09/03 02:00:34;;;;;;;1.33;1.13;;;23.70;42.50;;;;;;5013494;28;20407;-81
2022/09/03 02:03:04;;;;;;;1.63;1.17;;;23.70;42.50;;;;;;5032098;28;20452;-82
2022/09/03 02:05:34;;;;;;;1.53;1.20;;;23.70;42.50;;;;;;5017455;28;20414;-81
2022/09/03 02:08:08;;;;;;;1.03;0.90;;;23.70;42.50;;;;;;5050854;28;20402;-82
2022/09/03 02:10:54;;;;;;;1.57;1.30;;;23.80;42.60;;;;;;5051103;28;20817;-81
2022/09/03 02:13:25;;;;;;;1.10;0.83;;;23.80;42.60;;;;;;5052191;28;20395;-81
2022/09/03 02:16:02;;;;;;;1.27;1.00;;;23.70;42.50;;;;;;5034041;28;20438;-81
2022/09/03 02:18:44;;;;;;;2.20;1.57;;;23.70;42.60;;;;;;5033421;28;20428;-81
2022/09/03 02:21:16;;;;;;;1.50;1.40;;;23.80;42.70;;;;;;5033717;28;20411;-81
2022/09/03 02:23:46;;;;;;;1.40;1.13;;;23.70;42.60;;;;;;5051529;28;20472;-82
2022/09/03 02:26:18;;;;;;;1.70;1.40;;;23.80;42.70;;;;;;5034046;28;20425;-81
2022/09/03 02:28:44;;;;;;;1.43;1.33;;;23.80;42.70;;;;;;5033858;28;20406;-82
2022/09/03 02:31:13;;;;;;;1.20;1.00;;;23.80;42.70;;;;;;5017529;28;20426;-81
2022/09/03 02:33:43;;;;;;;1.30;1.20;;;23.80;42.70;;;;;;5034555;28;20406;-81
2022/09/03 02:36:11;;;;;;;1.50;1.40;;;23.80;42.80;;;;;;5054221;28;20398;-83
2022/09/03 02:38:40;;;;;;;1.40;1.17;;;23.80;42.70;;;;;;5036812;28;20435;-83
2022/09/03 02:41:06;;;;;;;1.30;1.17;;;23.80;42.70;;;;;;5037358;28;20400;-83
2022/09/03 02:43:50;;;;;;;2.17;1.20;;;23.80;42.70;;;;;;5037746;28;20421;-83
2022/09/03 02:46:33;;;;;;;1.20;1.10;;;23.80;42.70;;;;;;5037984;28;20402;-83
2022/09/03 02:49:05;;;;;;;1.23;1.10;;;23.80;42.60;;;;;;5037259;28;20410;-83
2022/09/03 02:51:51;;;;;;;1.20;1.00;;;23.80;42.70;;;;;;5035093;28;20403;-81
2022/09/03 02:54:17;;;;;;;1.67;1.20;;;23.80;42.60;;;;;;5052766;28;20386;-81
2022/09/03 02:56:52;;;;;;;1.40;1.23;;;23.80;42.60;;;;;;5034830;28;20474;-81
2022/09/03 02:59:27;;;;;;;1.23;1.13;;;23.80;42.60;;;;;;5035536;28;20420;-81
2022/09/03 03:01:54;;;;;;;1.30;1.17;;;23.80;42.60;;;;;;5034809;28;20441;-81
2022/09/03 03:04:20;;;;;;;1.77;1.20;;;23.80;42.60;;;;;;5036057;28;20420;-81
2022/09/03 03:06:49;;;;;;;1.40;1.10;;;23.80;42.60;;;;;;5036258;28;20411;-81
2022/09/03 03:09:17;;;;;;;2.03;1.20;;;23.80;42.60;;;;;;5036516;28;20402;-81
2022/09/03 03:11:43;;;;;;;1.43;1.20;;;23.80;42.60;;;;;;5037062;28;20951;-81
2022/09/03 03:14:13;;;;;;;1.60;1.20;;;23.80;42.60;;;;;;5036495;28;20402;-81
2022/09/03 03:16:47;;;;;;;1.30;1.20;;;23.80;42.70;;;;;;5036402;28;20415;-81
2022/09/03 03:19:14;;;;;;;1.60;1.20;;;23.80;42.60;;;;;;5016307;28;20421;-81
2022/09/03 03:21:43;;;;;;;2.13;1.20;;;23.80;42.60;;;;;;5020601;28;20450;-81
2022/09/03 03:24:09;;;;;;;1.23;1.00;;;23.80;42.60;;;;;;5054711;28;20414;-81
2022/09/03 03:26:53;;;;;;;1.20;1.00;;;23.80;42.70;;;;;;5038306;28;20411;-81
2022/09/03 03:29:20;;;;;;;2.40;1.30;;;23.80;42.70;;;;;;5028444;28;20410;-83
2022/09/03 03:31:47;;;;;;;1.27;1.10;;;23.80;42.60;;;;;;5028523;28;20447;-83
2022/09/03 03:34:13;;;;;;;1.20;1.00;;;23.80;42.60;;;;;;5029859;28;20418;-83
2022/09/03 03:36:39;;;;;;;1.53;1.40;;;23.80;42.70;;;;;;5028370;28;20425;-83
2022/09/03 03:39:05;;;;;;;1.50;1.10;;;23.80;42.70;;;;;;5028897;28;20609;-84
2022/09/03 03:41:34;;;;;;;1.23;0.93;;;23.80;42.70;;;;;;5028535;28;20470;-83
2022/09/03 03:44:06;;;;;;;1.40;1.20;;;23.80;42.70;;;;;;5012365;28;20407;-84
2022/09/03 03:46:39;;;;;;;1.40;1.10;;;23.80;42.80;;;;;;5013181;28;20755;-83
2022/09/03 03:49:06;;;;;;;1.90;1.27;;;23.80;42.70;;;;;;5013233;28;20415;-83
2022/09/03 03:51:34;;;;;;;2.37;1.40;;;23.80;42.80;;;;;;5012740;28;20450;-83
2022/09/03 03:54:00;;;;;;;1.47;1.30;;;23.80;42.80;;;;;;5012540;28;20415;-83
2022/09/03 03:56:26;;;;;;;1.77;1.40;;;23.80;42.80;;;;;;5012806;28;20415;-83
2022/09/03 03:58:57;;;;;;;2.10;1.40;;;23.80;42.70;;;;;;5013052;28;20415;-83
2022/09/03 04:01:25;;;;;;;1.40;1.17;;;23.80;42.70;;;;;;5011781;28;20469;-83
2022/09/03 04:03:54;;;;;;;1.30;1.07;;;23.80;42.70;;;;;;5012338;28;20490;-82
2022/09/03 04:06:20;;;;;;;1.60;1.30;;;23.80;42.80;;;;;;5012494;28;20485;-82
2022/09/03 04:08:48;;;;;;;1.47;1.20;;;23.80;42.80;;;;;;5012475;28;20407;-82
2022/09/03 04:11:22;;;;;;;1.50;1.20;;;23.80;42.80;;;;;;5030084;28;20706;-82
2022/09/03 04:13:49;;;;;;;1.27;1.07;;;23.80;42.80;;;;;;5012422;28;20792;-82
2022/09/03 04:16:17;;;;;;;1.37;1.27;;;23.80;42.80;;;;;;5012449;28;20404;-82
2022/09/03 04:18:53;;;;;;;2.00;1.20;;;23.70;42.80;;;;;;5047503;28;20745;-83
2022/09/03 04:21:31;;;;;;;1.50;1.30;;;23.80;42.90;;;;;;5049718;28;20443;-83
2022/09/03 04:24:00;;;;;;;1.30;1.07;;;23.80;43.40;;;;;;5031542;28;20414;-82
2022/09/03 04:26:32;;;;;;;1.50;1.20;;;23.70;42.80;;;;;;5032682;28;20425;-82
2022/09/03 04:29:04;;;;;;;1.40;1.10;;;23.70;42.80;;;;;;5031753;28;20407;-83
2022/09/03 04:31:31;;;;;;;1.60;1.20;;;23.70;42.80;;;;;;5032966;28;20421;-80
2022/09/03 04:34:00;;;;;;;1.30;1.20;;;23.70;42.80;;;;;;5035356;28;20441;-80
2022/09/03 04:36:31;;;;;;;1.70;1.27;;;23.70;42.80;;;;;;5035610;28;20425;-80
2022/09/03 04:39:20;;;;;;;1.87;1.40;;;23.70;42.80;;;;;;5032090;28;20451;-81
2022/09/03 04:41:48;;;;;;;1.60;1.10;;;23.80;42.90;;;;;;5023833;28;20493;-80
2022/09/03 04:44:15;;;;;;;2.20;1.30;;;23.70;42.90;;;;;;5030955;28;20415;-80
2022/09/03 04:46:41;;;;;;;1.77;1.63;;;23.80;42.90;;;;;;5029957;28;20419;-81
2022/09/03 04:49:08;;;;;;;2.00;1.47;;;23.80;43.00;;;;;;5045690;28;20414;-80
2022/09/03 04:51:37;;;;;;;2.03;1.47;;;23.80;42.90;;;;;;5051640;28;20820;-80
2022/09/03 04:54:04;;;;;;;2.20;1.73;;;23.80;42.90;;;;;;5049771;28;20429;-80
2022/09/03 04:56:35;;;;;;;4.20;1.70;;;23.80;42.90;;;;;;5050867;28;20422;-80
2022/09/03 05:00:19;;;;;;;2.50;1.40;;;23.80;43.00;;;;;;5050039;28;20418;-80
2022/09/03 05:02:41;;;;;;;1.90;1.33;;;23.80;43.00;;;;;;5045894;28;20796;-80
2022/09/03 05:05:10;;;;;;;2.83;1.67;;;23.70;42.90;;;;;;5052353;28;20419;-81
2022/09/03 05:07:37;;;;;;;1.70;1.50;;;23.70;42.90;;;;;;5035927;28;20423;-80
2022/09/03 05:10:19;;;;;;;2.77;1.60;;;23.70;42.90;;;;;;5052141;28;20425;-80
2022/09/03 05:12:59;;;;;;;1.67;1.50;;;23.70;43.00;;;;;;5020459;28;20414;-80
2022/09/03 05:15:25;;;;;;;1.60;1.37;;;23.70;42.90;;;;;;5052243;28;20445;-80
2022/09/03 05:17:58;;;;;;;1.87;1.63;;;23.70;43.00;;;;;;5051327;28;20414;-80
2022/09/03 05:20:24;;;;;;;1.73;1.60;;;23.70;43.00;;;;;;5050862;28;20420;-82
2022/09/03 05:22:53;;;;;;;1.73;1.63;;;23.70;43.10;;;;;;5047197;28;20461;-82
2022/09/03 05:25:19;;;;;;;2.10;1.50;;;23.70;43.00;;;;;;5047529;28;20456;-82
2022/09/03 05:27:45;;;;;;;1.73;1.20;;;23.70;43.00;;;;;;5047264;28;20423;-82
2022/09/03 05:30:12;;;;;;;2.20;1.40;;;23.70;43.00;;;;;;5046813;28;20204;-82
2022/09/03 05:32:38;;;;;;;1.80;1.40;;;23.70;43.00;;;;;;5046497;28;20415;-82
2022/09/03 05:35:07;;;;;;;2.00;1.50;;;23.70;43.00;;;;;;5046784;28;20514;-83
2022/09/03 05:37:33;;;;;;;2.07;1.30;;;23.70;43.00;;;;;;5046865;28;20445;-82
2022/09/03 05:40:01;;;;;;;1.60;1.40;;;23.70;43.00;;;;;;5046850;28;20430;-82
2022/09/03 05:42:27;;;;;;;1.50;1.30;;;23.70;43.00;;;;;;5046818;28;20458;-82
2022/09/03 05:44:53;;;;;;;1.60;1.50;;;23.70;43.00;;;;;;5046666;28;20425;-82
2022/09/03 05:47:22;;;;;;;1.40;1.30;;;23.70;43.00;;;;;;5046441;28;20697;-83
2022/09/03 05:49:53;;;;;;;2.00;1.50;;;23.70;43.00;;;;;;5046563;28;20415;-83
2022/09/03 05:52:22;;;;;;;2.10;1.60;;;23.70;43.00;;;;;;5029018;28;20418;-82
2022/09/03 05:54:50;;;;;;;1.63;1.30;;;23.70;43.00;;;;;;5046039;28;20427;-83
2022/09/03 05:57:16;;;;;;;2.00;1.50;;;23.70;43.10;;;;;;5045438;28;20441;-83
2022/09/03 05:59:43;;;;;;;2.40;1.60;;;23.70;43.10;;;;;;5029514;28;20501;-83
2022/09/03 06:02:18;;;;;;;1.83;1.47;;;23.70;43.10;;;;;;5046941;28;20482;-84
2022/09/03 06:04:50;;;;;;;1.40;1.13;;;23.60;43.10;;;;;;5045669;28;20437;-84
2022/09/03 06:07:26;;;;;;;1.67;1.27;;;23.70;43.10;;;;;;5034340;28;20519;-82
2022/09/03 06:09:53;;;;;;;1.40;1.30;;;23.70;43.10;;;;;;5053035;28;20421;-82
2022/09/03 06:12:20;;;;;;;1.83;1.33;;;23.70;43.10;;;;;;5053377;28;20419;-82
2022/09/03 06:14:50;;;;;;;1.53;1.43;;;23.70;43.10;;;;;;5054164;28;20427;-82
2022/09/03 06:17:16;;;;;;;1.50;1.40;;;23.70;43.10;;;;;;5055018;28;20394;-82
2022/09/03 06:19:43;;;;;;;1.60;1.40;;;23.70;43.10;;;;;;5051245;28;20859;-80
2022/09/03 06:22:10;;;;;;;19.33;1.73;;;23.70;43.20;;;;;;5047748;28;20450;-79
2022/09/03 06:24:36;;;;;;;1.97;1.47;;;23.70;43.20;;;;;;5047806;28;20433;-79
2022/09/03 06:27:05;;;;;;;1.63;1.30;;;23.70;43.10;;;;;;5047224;28;20407;-79
2022/09/03 06:29:31;;;;;;;3.10;1.33;;;23.70;43.10;;;;;;5047576;28;20462;-80
2022/09/03 06:31:58;;;;;;;1.50;1.40;;;23.70;43.10;;;;;;5047919;28;20407;-80
2022/09/03 06:34:29;;;;;;;1.97;1.17;;;23.70;43.00;;;;;;5047182;28;20407;-84
2022/09/03 06:36:58;;;;;;;1.73;1.33;;;23.70;43.00;;;;;;5045803;28;20412;-83
2022/09/03 06:39:25;;;;;;;2.97;1.40;;;23.70;43.60;;;;;;5045893;28;20437;-83
2022/09/03 06:41:52;;;;;;;3.83;1.40;;;23.60;42.90;;;;;;5045748;28;20447;-83
2022/09/03 06:44:18;;;;;;;1.57;1.40;;;23.60;42.90;;;;;;5044994;28;20430;-83
2022/09/03 06:46:44;;;;;;;1.70;1.60;;;23.60;42.90;;;;;;5045400;28;20406;-82
2022/09/03 06:49:11;;;;;;;1.50;1.30;;;23.60;43.00;;;;;;5045919;28;20406;-82
2022/09/03 06:51:42;;;;;;;1.63;1.53;;;23.70;43.10;;;;;;5046829;28;20824;-82
2022/09/03 06:54:10;;;;;;;3.00;1.30;;;23.70;43.10;;;;;;5045794;28;20406;-83
2022/09/03 06:56:41;;;;;;;1.73;1.20;;;23.60;43.10;;;;;;5046510;28;20422;-82
2022/09/03 06:59:09;;;;;;;1.50;1.33;;;23.70;43.10;;;;;;5047167;28;20394;-82
2022/09/03 07:01:35;;;;;;;1.60;1.20;;;23.70;43.10;;;;;;5045724;28;20447;-83
2022/09/03 07:04:04;;;;;;;1.60;1.50;;;23.70;43.10;;;;;;5045512;28;20418;-82
2022/09/03 07:06:38;;;;;;;1.60;1.13;;;23.70;43.10;;;;;;5045837;28;20425;-83
2022/09/03 07:09:10;;;;;;;1.57;1.37;;;23.70;43.10;;;;;;5045366;28;20417;-84
2022/09/03 07:11:44;;;;;;;2.80;2.10;;;23.70;43.10;;;;;;5045926;28;20418;-83
2022/09/03 07:14:17;;;;;;;1.83;1.30;;;23.70;43.10;;;;;;5046444;28;20871;-84
2022/09/03 07:16:44;;;;;;;1.67;1.33;;;23.70;43.10;;;;;;5045365;28;20427;-83
2022/09/03 07:19:13;;;;;;;2.17;1.20;;;23.70;43.20;;;;;;5049418;28;20501;-83
2022/09/03 07:21:40;;;;;;;2.17;1.27;;;23.70;43.20;;;;;;5049372;28;20537;-83
2022/09/03 07:24:07;;;;;;;1.20;1.07;;;23.70;43.10;;;;;;5033252;28;20418;-83
2022/09/03 07:26:36;;;;;;;1.60;1.10;;;23.70;43.10;;;;;;5049999;28;20414;-84
2022/09/03 07:29:06;;;;;;;1.43;1.10;;;23.70;43.00;;;;;;5049584;28;20843;-83
2022/09/03 07:31:39;;;;;;;2.20;1.53;;;23.70;42.90;;;;;;5016712;28;20856;-84
2022/09/03 07:34:09;;;;;;;1.90;1.47;;;23.70;42.90;;;;;;5049750;28;20840;-84
2022/09/03 07:36:48;;;;;;;2.47;1.40;;;23.70;43.00;;;;;;5049375;28;20428;-83
2022/09/03 07:39:16;;;;;;;1.60;1.30;;;23.70;43.00;;;;;;5049581;28;20465;-84
2022/09/03 07:41:44;;;;;;;2.57;1.47;;;23.70;43.00;;;;;;5043175;28;20462;-83
2022/09/03 07:44:18;;;;;;;3.10;1.40;;;23.70;43.00;;;;;;5032625;28;20478;-83
2022/09/03 07:46:46;;;;;;;5.00;2.50;;;23.70;43.00;;;;;;5032767;28;20434;-83
2022/09/03 07:49:27;;;;;;;2.87;1.33;;;23.70;43.00;;;;;;5033324;28;20430;-84
2022/09/03 07:58:29;;;;;;;1.77;1.50;;;23.70;43.00;;;;;;4970249;29;20478;-83
2022/09/03 08:00:55;;;;;;;1.77;1.40;;;23.60;42.90;;;;;;4954419;29;20422;-83
2022/09/03 08:03:21;;;;;;;2.97;1.50;;;23.60;43.00;;;;;;4954368;29;20454;-84
2022/09/03 08:05:48;;;;;;;1.73;1.33;;;23.60;43.00;;;;;;4954707;29;20482;-84
2022/09/03 08:08:16;;;;;;;1.77;1.40;;;23.60;43.00;;;;;;4954083;29;20490;-83
2022/09/03 08:10:43;;;;;;;2.00;1.40;;;23.60;42.90;;;;;;4970340;29;20417;-83
2022/09/03 08:13:10;;;;;;;1.40;1.10;;;23.60;42.90;;;;;;4954027;29;20410;-83
2022/09/03 08:15:39;;;;;;;1.60;1.33;;;23.60;42.90;;;;;;4953346;29;20418;-84
2022/09/03 08:18:05;;;;;;;1.73;1.10;;;23.60;42.90;;;;;;4969763;29;20417;-84
2022/09/03 08:20:32;;;;;;;3.30;1.20;;;23.60;42.90;;;;;;4969923;29;20417;-84
2022/09/03 08:23:02;;;;;;;1.53;1.33;;;23.60;42.90;;;;;;4953809;29;20460;-83
2022/09/03 08:25:29;;;;;;;1.33;1.23;;;23.60;42.80;;;;;;5003280;28;20415;-84
2022/09/03 08:27:58;;;;;;;1.33;1.20;;;23.60;42.80;;;;;;5031862;28;20509;-83
2022/09/03 08:30:29;;;;;;;1.63;1.23;;;23.60;42.80;;;;;;5031528;28;20409;-83
2022/09/03 08:33:00;;;;;;;2.47;1.30;;;23.60;42.90;;;;;;5031893;28;20723;-83
2022/09/03 08:35:26;;;;;;;1.83;1.50;;;23.60;42.80;;;;;;5031150;28;20464;-82
2022/09/03 08:37:52;;;;;;;2.23;1.67;;;23.60;42.80;;;;;;5031835;28;20406;-83
2022/09/03 08:40:23;;;;;;;1.90;1.07;;;23.60;42.80;;;;;;5048924;28;20481;-83
2022/09/03 08:43:07;;;;;;;2.27;1.10;;;23.60;42.80;;;;;;5031246;28;20492;-83
2022/09/03 08:45:42;;;;;;;1.70;1.20;;;23.60;42.80;;;;;;5031254;28;20672;-83
2022/09/03 08:48:30;;;;;;;1.50;1.40;;;23.60;42.80;;;;;;5031311;28;20495;-83
2022/09/03 08:51:01;;;;;;;1.60;1.50;;;23.60;42.90;;;;;;5048625;28;20402;-83
2022/09/03 08:53:39;;;;;;;1.90;1.23;;;23.60;43.00;;;;;;5030936;28;20474;-83
2022/09/03 08:56:12;;;;;;;1.30;1.10;;;23.60;43.00;;;;;;5030735;28;20414;-83
2022/09/03 08:58:42;;;;;;;1.83;1.40;;;23.60;43.00;;;;;;5031343;28;20478;-83
2022/09/03 09:01:10;;;;;;;2.20;1.50;;;23.60;43.00;;;;;;5048708;28;20407;-83
2022/09/03 09:03:57;;;;;;;1.70;1.30;;;23.60;43.00;;;;;;5031457;28;20418;-83
2022/09/03 09:06:36;;;;;;;1.40;1.20;;;23.60;42.90;;;;;;5031239;28;20901;-83
2022/09/03 09:09:53;;;;;;;1.50;1.20;;;23.60;42.90;;;;;;5031388;28;20410;-83
2022/09/03 09:13:00;;;;;;;2.20;1.40;;;23.60;43.00;;;;;;5030923;28;20425;-84
2022/09/03 09:18:56;;;;;;;1.33;1.23;;;23.60;43.00;;;;;;5006997;28;20395;-83
2022/09/03 09:21:29;;;;;;;1.73;1.23;;;23.60;43.00;;;;;;4991333;28;20418;-84
2022/09/03 09:24:02;;;;;;;5.03;1.73;;;23.60;43.00;;;;;;5006926;28;20396;-83
2022/09/03 09:26:40;;;;;;;1.93;1.33;;;23.60;43.00;;;;;;4991136;28;20431;-83
2022/09/03 09:29:10;;;;;;;1.40;1.20;;;23.60;43.00;;;;;;4990410;28;20479;-83
2022/09/03 09:31:38;;;;;;;1.67;1.37;;;23.60;43.00;;;;;;5006745;28;20435;-84
2022/09/03 09:34:09;;;;;;;1.30;1.20;;;23.70;43.10;;;;;;5006960;28;20431;-83
2022/09/03 09:36:48;;;;;;;1.47;1.37;;;23.70;43.10;;;;;;4990149;28;20424;-83
2022/09/03 09:39:17;;;;;;;1.97;1.80;;;23.70;43.00;;;;;;5006281;28;20731;-83
2022/09/03 09:42:04;;;;;;;1.70;1.40;;;23.70;43.00;;;;;;4989662;28;20466;-83
2022/09/03 09:44:36;;;;;;;1.33;1.10;;;23.70;43.10;;;;;;4989860;28;20850;-83
2022/09/03 09:47:27;;;;;;;1.80;1.20;;;23.70;43.00;;;;;;5020358;28;20708;-84
2022/09/03 09:49:56;;;;;;;1.73;1.20;;;23.70;43.10;;;;;;5029342;28;20417;-83
2022/09/03 09:52:24;;;;;;;2.57;1.40;;;23.70;43.10;;;;;;5029131;28;20418;-83
2022/09/03 09:54:55;;;;;;;1.67;1.50;;;23.70;43.10;;;;;;5029634;28;20691;-83
2022/09/03 09:57:24;;;;;;;1.80;1.67;;;23.70;43.10;;;;;;5030278;28;20425;-83
2022/09/03 10:00:03;;;;;;;1.73;1.30;;;23.80;43.10;;;;;;5029991;28;20416;-83
2022/09/03 10:03:01;;;;;;;3.80;1.73;;;23.80;43.10;;;;;;5029889;28;20465;-83
2022/09/03 10:09:17;;;;;;;1.60;1.40;;;23.80;43.10;;;;;;5038763;28;20429;-83
2022/09/03 10:11:50;;;;;;;1.97;1.50;;;23.80;43.10;;;;;;5030438;28;20474;-83
2022/09/03 10:14:41;;;;;;;1.50;1.30;;;23.80;43.10;;;;;;5028904;28;20402;-82
2022/09/03 10:17:30;;;;;;;1.47;1.30;;;23.80;43.00;;;;;;5036503;28;20401;-80
2022/09/03 10:20:27;;;;;;;1.67;1.57;;;23.80;43.00;;;;;;5039532;28;20402;-80
2022/09/03 10:23:37;;;;;;;1.63;1.30;;;23.80;43.00;;;;;;5039518;28;20549;-80
2022/09/03 10:26:15;;;;;;;1.97;1.30;;;23.80;43.10;;;;;;5018029;28;20411;-80
2022/09/03 10:28:49;;;;;;;2.70;1.80;;;23.80;43.10;;;;;;5054548;28;20448;-80
2022/09/03 10:31:45;;;;;;;2.10;1.53;;;23.80;43.10;;;;;;5054941;28;20418;-80
2022/09/03 10:34:45;;;;;;;2.53;1.57;;;23.80;43.10;;;;;;5037932;28;20442;-80
2022/09/03 10:37:34;;;;;;;2.17;1.43;;;23.90;43.10;;;;;;5035776;28;20507;-79
2022/09/03 10:40:09;;;;;;;1.50;1.40;;;23.80;43.10;;;;;;5034988;28;20440;-79
2022/09/03 10:43:03;;;;;;;1.53;1.30;;;23.90;43.20;;;;;;5036786;28;20493;-79
2022/09/03 10:46:02;;;;;;;2.40;1.43;;;23.90;43.20;;;;;;5036673;28;20407;-81
2022/09/03 10:48:58;;;;;;;1.77;1.43;;;23.90;43.10;;;;;;5035733;28;20406;-80
2022/09/03 10:52:04;;;;;;;1.63;1.40;;;23.90;43.10;;;;;;5035399;28;20465;-80
2022/09/03 10:54:53;;;;;;;2.40;1.50;;;23.90;43.10;;;;;;5033190;28;20406;-80
2022/09/03 10:57:43;;;;;;;1.67;1.47;;;23.90;43.10;;;;;;5034494;28;20708;-80
2022/09/03 11:00:11;;;;;;;1.47;1.17;;;23.90;43.10;;;;;;5032772;28;20406;-80
2022/09/03 11:02:53;;;;;;;1.33;1.20;;;23.90;43.10;;;;;;5049102;28;20453;-80
2022/09/03 11:05:31;;;;;;;1.70;1.47;;;23.90;43.10;;;;;;5031131;28;20410;-80
2022/09/03 11:08:06;;;;;;;1.33;1.13;;;23.90;43.10;;;;;;5030975;28;20409;-81
2022/09/03 11:10:39;;;;;;;1.73;1.57;;;23.90;43.10;;;;;;5029411;28;20410;-81
2022/09/03 11:13:13;;;;;;;2.40;1.37;;;23.90;43.10;;;;;;5030195;28;20411;-81
2022/09/03 11:15:50;;;;;;;2.10;1.50;;;23.90;43.10;;;;;;5030618;28;20407;-81
2022/09/03 11:18:27;;;;;;;2.53;1.47;;;23.90;43.20;;;;;;5030133;28;20742;-84
2022/09/03 11:20:59;;;;;;;2.73;1.60;;;23.90;43.20;;;;;;5028958;28;20464;-84
2022/09/03 11:23:28;;;;;;;3.27;1.53;;;23.90;43.20;;;;;;5047034;28;20439;-83
2022/09/03 11:25:58;;;;;;;2.10;1.60;;;24.00;43.30;;;;;;5027745;28;20411;-83
2022/09/03 11:28:46;;;;;;;1.57;1.27;;;24.00;43.30;;;;;;5029142;28;20478;-84
2022/09/03 11:31:38;;;;;;;1.80;1.27;;;24.00;43.20;;;;;;5029335;28;20446;-82
2022/09/03 11:34:12;;;;;;;2.23;1.50;;;24.00;43.30;;;;;;5046416;28;20686;-83
2022/09/03 11:36:42;;;;;;;1.77;1.37;;;24.00;43.30;;;;;;5029440;28;20879;-83
2022/09/03 11:40:05;;;;;;;1.87;1.50;;;24.00;43.30;;;;;;5046935;28;20414;-83
2022/09/03 11:42:38;;;;;;;1.40;1.20;;;24.00;43.30;;;;;;4931762;29;20478;-83
2022/09/03 11:45:28;;;;;;;1.80;1.50;;;24.00;43.30;;;;;;4931642;29;20466;-83
2022/09/03 11:51:47;;;;;;;2.80;1.60;;;24.00;43.20;;;;;;5047267;28;20458;-83
2022/09/03 11:54:13;;;;;;;1.40;1.27;;;24.00;43.30;;;;;;4947566;29;20416;-83
2022/09/03 11:56:41;;;;;;;1.43;1.30;;;24.00;43.30;;;;;;4931309;29;20479;-83
2022/09/03 11:59:27;;;;;;;1.40;1.30;;;24.00;43.30;;;;;;4932231;29;20411;-83
2022/09/03 12:02:22;;;;;;;1.60;1.23;;;24.00;43.20;;;;;;4931757;29;20526;-83
2022/09/03 12:05:06;;;;;;;1.67;1.40;;;24.00;43.20;;;;;;4922164;29;20485;-82
2022/09/03 12:11:20;;;;;;;1.60;1.40;;;24.00;43.20;;;;;;4950602;28;20881;-82
2022/09/03 12:14:08;;;;;;;1.30;1.17;;;24.00;43.30;;;;;;4934138;29;20418;-82
2022/09/03 12:16:37;;;;;;;1.90;1.23;;;24.00;43.30;;;;;;4949575;29;20395;-83
2022/09/03 12:19:50;;;;;;;2.20;1.60;;;24.00;43.40;;;;;;4934229;29;20411;-83
2022/09/03 12:22:18;;;;;;;1.53;1.43;;;24.00;43.30;;;;;;4859933;29;20486;-82
2022/09/03 12:24:44;;;;;;;2.43;1.47;;;24.00;43.40;;;;;;4859502;29;20408;-83
2022/09/03 12:27:23;;;;;;;1.83;1.50;;;24.00;43.40;;;;;;4874923;29;20411;-83
2022/09/03 12:30:29;;;;;;;3.33;1.73;;;24.00;43.40;;;;;;4859837;29;20463;-83
2022/09/03 12:33:07;;;;;;;2.97;1.60;;;24.10;43.50;;;;;;4970235;29;20418;-82
2022/09/03 12:35:33;;;;;;;3.87;1.80;;;24.00;43.40;;;;;;4954060;29;20428;-82
2022/09/03 12:38:02;;;;;;;2.17;1.70;;;24.10;43.50;;;;;;4954265;29;20518;-83
2022/09/03 12:40:32;;;;;;;2.03;1.40;;;24.10;43.50;;;;;;4953278;29;20438;-80
2022/09/03 12:43:16;;;;;;;1.87;1.67;;;24.10;43.50;;;;;;4952367;29;20452;-80
2022/09/03 12:45:47;;;;;;;1.90;1.70;;;24.10;43.50;;;;;;4970732;29;20867;-80
2022/09/03 12:48:27;;;;;;;3.10;1.77;;;24.10;43.50;;;;;;4955368;29;20486;-80
2022/09/03 12:51:09;;;;;;;1.77;1.67;;;24.10;43.50;;;;;;4971458;29;20402;-81
2022/09/03 12:53:39;;;;;;;1.50;1.40;;;24.10;43.50;;;;;;4955901;29;20414;-81
2022/09/03 12:56:08;;;;;;;2.17;1.80;;;24.10;43.60;;;;;;4938318;29;20867;-81
2022/09/03 12:58:47;;;;;;;2.80;1.90;;;24.10;43.60;;;;;;5025528;28;20473;-81
2022/09/03 13:01:31;;;;;;;3.17;1.80;;;24.10;43.60;;;;;;5031188;28;20418;-81
2022/09/03 13:04:04;;;;;;;2.33;1.80;;;24.10;43.60;;;;;;5030582;28;20910;-81
2022/09/03 13:07:13;;;;;;;3.73;1.57;;;24.10;43.60;;;;;;5032288;28;20899;-84
2022/09/03 13:10:03;;;;;;;2.03;1.70;;;24.10;43.70;;;;;;5035928;28;20409;-84
2022/09/03 13:12:43;;;;;;;;;;;;;;;;;;;;;
2022/09/03 13:15:37;;;;;;;2.03;1.60;;;24.10;43.80;;;;;;5029787;28;20427;-84
2022/09/03 13:18:53;;;;;;;2.50;2.30;;;24.10;43.80;;;;;;5010484;28;20416;-84
2022/09/03 13:21:59;;;;;;;1.93;1.60;;;24.10;43.80;;;;;;5007874;28;20412;-84
2022/09/03 13:24:39;;;;;;;1.70;1.60;;;24.10;43.80;;;;;;5011266;28;20419;-83
2022/09/03 13:27:39;;;;;;;2.00;1.90;;;24.10;43.90;;;;;;5028939;28;20410;-83
2022/09/03 13:30:29;;;;;;;2.83;1.90;;;24.10;44.00;;;;;;5029497;28;20912;-84
2022/09/03 13:33:25;;;;;;;2.33;2.20;;;24.20;44.20;;;;;;5012460;28;20896;-84
2022/09/03 13:36:31;;;;;;;;;;;;;;;;;;;;;
2022/09/03 13:42:41;;;;;;;2.67;2.07;;;24.20;44.20;;;;;;4968701;28;20520;-84
2022/09/03 13:52:10;;;;;;;2.20;1.90;;;24.10;44.20;;;;;;4967368;28;20441;-83
2022/09/03 13:54:44;;;;;;;2.40;2.20;;;24.20;44.50;;;;;;4933401;29;20489;-83
2022/09/03 13:57:51;;;;;;;2.10;1.87;;;24.10;44.50;;;;;;4949263;29;20423;-83
2022/09/03 14:00:55;;;;;;;2.07;1.87;;;24.20;44.50;;;;;;4931823;29;20520;-84
2022/09/03 14:04:10;;;;;;;1.83;1.73;;;24.20;44.50;;;;;;4937902;29;20786;-83
2022/09/03 14:07:13;;;;;;;2.30;2.07;;;24.20;44.60;;;;;;4910357;29;20432;-83
2022/09/03 14:09:53;;;;;;;2.57;2.30;;;24.20;44.80;;;;;;4974385;28;20414;-83
2022/09/03 14:12:33;;;;;;;1.90;1.80;;;24.20;44.70;;;;;;5029997;28;20886;-83